createdAt,value
2023-03-28T07:08:34.972Z,4.11
2023-03-28T07:09:36.866Z,4.13
2023-03-28T07:10:39.590Z,4.26
2023-03-28T07:11:41.006Z,4.33
2023-03-28T07:12:42.429Z,4.78
2023-03-28T07:13:43.925Z,4.48
2023-03-28T07:14:46.841Z,4.97
2023-03-28T07:15:48.222Z,4.89
2023-03-28T07:16:49.620Z,5.38
2023-03-28T07:17:51.246Z,5.36
2023-03-28T07:18:52.780Z,5.56
2023-03-28T07:19:54.343Z,5.54
2023-03-28T07:21:04.089Z,5.69
2023-03-28T07:22:06.228Z,5.62
2023-03-28T07:23:07.658Z,5.69
2023-03-28T07:24:09.350Z,5.54
2023-03-28T07:25:11.225Z,5.59
2023-03-28T07:26:14.076Z,5.56
2023-03-28T07:27:16.940Z,5.62
2023-03-28T07:28:18.884Z,5.55
2023-03-28T07:29:20.488Z,5.77
2023-03-28T07:30:21.955Z,5.58
2023-03-28T07:31:24.591Z,6.03
2023-03-28T07:32:30.974Z,6.36
2023-03-28T07:33:38.249Z,5.93
2023-03-28T07:34:40.155Z,6.36
2023-03-28T07:35:42.017Z,6.70
2023-03-28T07:36:43.519Z,6.45
2023-03-28T07:37:44.903Z,6.40
2023-03-28T07:38:48.429Z,6.93
2023-03-28T07:39:50.915Z,6.62
2023-03-28T07:40:52.385Z,6.94
2023-03-28T07:41:53.950Z,6.79
2023-03-28T07:42:55.354Z,6.54
2023-03-28T07:43:56.986Z,6.17
2023-03-28T07:44:58.494Z,6.30
2023-03-28T07:46:06.380Z,6.63
2023-03-28T07:47:09.021Z,6.77
2023-03-28T07:48:10.855Z,6.73
2023-03-28T07:49:12.994Z,6.63
2023-03-28T07:50:14.496Z,6.63
2023-03-28T07:51:16.249Z,7.10
2023-03-28T07:52:18.189Z,7.63
2023-03-28T07:53:19.540Z,7.20
2023-03-28T07:54:21.641Z,7.04
2023-03-28T07:55:24.710Z,7.11
2023-03-28T07:56:27.052Z,7.79
2023-03-28T07:57:28.650Z,7.74
2023-03-28T07:58:30.479Z,7.78
2023-03-28T07:59:31.884Z,7.40
2023-03-28T08:00:33.455Z,7.47
2023-03-28T08:01:34.834Z,8.66
2023-03-28T08:02:36.294Z,8.88
2023-03-28T08:03:38.554Z,8.68
2023-03-28T08:04:40.259Z,8.84
2023-03-28T08:05:43.194Z,8.69
2023-03-28T08:06:45.656Z,8.76
2023-03-28T08:07:47.269Z,8.87
2023-03-28T08:08:48.866Z,8.52
2023-03-28T08:09:51.023Z,8.22
2023-03-28T08:10:52.422Z,8.69
2023-03-28T08:11:53.790Z,8.62
2023-03-28T08:12:55.216Z,9.08
2023-03-28T08:13:56.627Z,8.93
2023-03-28T08:14:58.113Z,9.19
2023-03-28T08:15:59.659Z,8.74
2023-03-28T08:17:01.143Z,9.21
2023-03-28T08:18:02.838Z,8.89
2023-03-28T08:19:11.243Z,8.13
2023-03-28T08:20:13.990Z,8.87
2023-03-28T08:21:15.761Z,8.97
2023-03-28T08:22:17.176Z,9.05
2023-03-28T08:23:18.698Z,9.25
2023-03-28T08:24:32.983Z,8.87
2023-03-28T08:25:37.172Z,9.80
2023-03-28T08:26:39.057Z,9.31
2023-03-28T08:27:40.969Z,8.91
2023-03-28T08:28:42.497Z,8.05
2023-03-28T08:29:43.932Z,8.04
2023-03-28T08:30:45.736Z,8.97
2023-03-28T08:31:48.007Z,8.59
2023-03-28T08:32:51.146Z,7.97
2023-03-28T08:33:53.855Z,8.82
2023-03-28T08:34:57.661Z,9.83
2023-03-28T08:35:59.149Z,10.50
2023-03-28T08:37:00.735Z,10.02
2023-03-28T08:38:02.184Z,10.24
2023-03-28T08:39:05.263Z,9.85
2023-03-28T08:40:10.300Z,9.64
2023-03-28T08:41:18.639Z,9.28
2023-03-28T08:42:38.251Z,9.80
2023-03-28T08:44:13.948Z,10.69
2023-03-28T08:45:21.393Z,9.84
2023-03-28T08:46:25.528Z,10.40
2023-03-28T08:47:30.840Z,10.26
2023-03-28T08:48:40.630Z,8.84
2023-03-28T08:49:46.724Z,8.93
2023-03-28T08:51:23.700Z,8.77
2023-03-28T08:52:25.814Z,8.40
2023-03-28T08:53:43.840Z,8.05
2023-03-28T08:54:49.819Z,8.03
2023-03-28T08:55:53.690Z,7.52
2023-03-28T08:56:58.001Z,6.40
2023-03-28T08:57:59.985Z,6.26
2023-03-28T08:59:12.596Z,5.89
2023-03-28T09:00:24.524Z,5.58
2023-03-28T09:01:29.418Z,5.32
2023-03-28T09:02:31.514Z,5.33
2023-03-28T09:03:41.640Z,5.10
2023-03-28T09:04:43.287Z,5.69
2023-03-28T09:05:48.047Z,6.26
2023-03-28T09:07:00.216Z,6.13
2023-03-28T09:08:19.698Z,5.62
2023-03-28T09:09:39.131Z,5.23
2023-03-28T09:10:45.313Z,4.93
2023-03-28T09:11:54.883Z,5.30
2023-03-28T09:13:04.350Z,5.32
2023-03-28T09:14:13.433Z,6.18
2023-03-28T09:15:37.488Z,6.88
2023-03-28T09:17:20.690Z,6.61
2023-03-28T09:18:42.993Z,6.35
2023-03-28T09:20:11.479Z,6.23
2023-03-28T09:21:27.680Z,5.83
2023-03-28T09:22:37.071Z,5.98
2023-03-28T09:23:39.274Z,5.67
2023-03-28T09:24:58.503Z,5.51
2023-03-28T09:26:17.644Z,5.20
2023-03-28T09:27:29.668Z,5.03
2023-03-28T09:29:03.632Z,4.80
2023-03-28T09:30:26.694Z,5.16
2023-03-28T09:31:33.353Z,4.85
2023-03-28T09:32:38.384Z,4.93
2023-03-28T09:33:43.681Z,5.43
2023-03-28T09:34:49.355Z,5.46
2023-03-28T09:35:56.106Z,5.45
2023-03-28T09:37:13.998Z,6.02
2023-03-28T09:38:38.254Z,6.24
2023-03-28T09:39:49.578Z,5.66
2023-03-28T09:40:55.083Z,5.66
2023-03-28T09:42:04.093Z,5.93
2023-03-28T09:43:22.214Z,6.70
2023-03-28T09:44:30.224Z,6.87
2023-03-28T09:45:53.656Z,6.73
2023-03-28T09:46:57.604Z,6.18
2023-03-28T09:48:00.297Z,6.19
2023-03-28T09:49:02.121Z,6.32
2023-03-28T09:50:12.570Z,6.28
2023-03-28T09:51:17.882Z,6.21
2023-03-28T09:52:21.267Z,6.15
2023-03-28T09:53:33.142Z,5.92
2023-03-28T09:54:35.632Z,5.54
2023-03-28T09:55:37.189Z,5.36
2023-03-28T09:56:41.957Z,5.07
2023-03-28T09:58:06.638Z,4.93
2023-03-28T09:59:31.966Z,5.08
2023-03-28T10:00:41.229Z,4.68
2023-03-28T10:01:45.315Z,4.43
2023-03-28T10:02:52.893Z,4.94
2023-03-28T10:03:55.886Z,4.51
2023-03-28T10:04:57.699Z,3.99
2023-03-28T10:06:01.532Z,4.87
2023-03-28T10:07:09.048Z,5.19
2023-03-28T10:08:25.796Z,5.45
2023-03-28T10:09:31.597Z,5.75
2023-03-28T10:10:32.980Z,5.95
2023-03-28T10:11:48.592Z,6.15
2023-03-28T10:12:57.118Z,6.47
2023-03-28T10:13:58.669Z,7.11
2023-03-28T10:15:04.677Z,7.37
2023-03-28T10:16:07.034Z,8.40
2023-03-28T10:17:31.471Z,8.57
2023-03-28T10:18:33.687Z,10.40
2023-03-28T10:19:39.430Z,10.40
2023-03-28T10:20:41.443Z,12.61
2023-03-28T10:21:48.123Z,11.97
2023-03-28T10:22:51.949Z,11.17
2023-03-28T10:24:03.920Z,10.50
2023-03-28T10:25:07.297Z,10.97
2023-03-28T10:26:13.036Z,11.70
2023-03-28T10:27:24.208Z,11.73
2023-03-28T10:28:35.123Z,12.14
2023-03-28T10:29:37.186Z,12.60
2023-03-28T10:30:38.889Z,12.01
2023-03-28T10:31:47.820Z,11.21
2023-03-28T10:33:17.611Z,10.70
2023-03-28T10:34:31.013Z,10.66
2023-03-28T10:35:33.979Z,10.59
2023-03-28T10:36:41.483Z,9.64
2023-03-28T10:37:43.064Z,8.80
2023-03-28T10:38:47.573Z,8.92
2023-03-28T10:40:06.759Z,9.11
2023-03-28T10:41:24.608Z,9.09
2023-03-28T10:42:27.467Z,9.48
2023-03-28T10:43:42.024Z,9.34
2023-03-28T10:44:43.538Z,8.17
2023-03-28T10:45:51.014Z,8.78
2023-03-28T10:46:53.084Z,10.68
2023-03-28T10:47:59.073Z,11.00
2023-03-28T10:49:07.072Z,11.46
2023-03-28T10:50:22.184Z,12.54
2023-03-28T10:51:25.855Z,12.23
2023-03-28T10:52:53.795Z,12.23
2023-03-28T10:54:20.625Z,11.73
2023-03-28T10:55:27.335Z,11.93
2023-03-28T10:56:34.908Z,11.95
2023-03-28T10:57:39.074Z,12.33
2023-03-28T10:59:05.326Z,12.82
2023-03-28T11:00:12.151Z,11.71
2023-03-28T11:01:21.194Z,11.43
2023-03-28T11:02:51.655Z,11.73
2023-03-28T11:04:24.275Z,12.28
2023-03-28T11:05:41.254Z,13.62
2023-03-28T11:07:04.047Z,13.55
2023-03-28T11:08:44.745Z,13.89
2023-03-28T11:09:51.925Z,13.15
2023-03-28T11:11:20.255Z,12.78
2023-03-28T11:14:21.746Z,12.05
2023-03-28T11:14:39.281Z,11.80
2023-03-28T11:15:45.871Z,9.93
2023-03-28T11:16:58.946Z,10.47
2023-03-28T11:18:19.961Z,10.40
2023-03-28T11:19:39.996Z,9.56
2023-03-28T11:20:50.726Z,8.49
2023-03-28T11:22:26.628Z,9.04
2023-03-28T11:23:38.623Z,9.11
2023-03-28T11:24:57.204Z,8.59
2023-03-28T11:26:12.995Z,8.83
2023-03-28T11:27:48.461Z,9.53
2023-03-28T11:29:30.404Z,9.34
2023-03-28T11:30:41.007Z,8.96
2023-03-28T11:32:07.148Z,9.23
2023-03-28T11:33:14.094Z,10.94
2023-03-28T11:34:32.535Z,11.62
2023-03-28T11:35:34.019Z,11.30
2023-03-28T11:36:49.797Z,10.63
2023-03-28T11:38:22.156Z,10.06
2023-03-28T11:39:49.286Z,9.99
2023-03-28T11:40:56.727Z,10.20
2023-03-28T11:42:05.367Z,11.71
2023-03-28T11:43:13.571Z,11.34
2023-03-28T11:44:30.559Z,10.42
2023-03-28T11:45:50.184Z,10.28
2023-03-28T11:47:07.503Z,10.78
2023-03-28T11:48:20.052Z,10.16
2023-03-28T11:49:36.115Z,10.43
2023-03-28T11:51:08.066Z,10.50
2023-03-28T11:52:26.200Z,10.32
2023-03-28T11:53:34.745Z,9.57
2023-03-28T11:54:49.364Z,8.82
2023-03-28T11:55:58.395Z,8.56
2023-03-28T11:57:06.942Z,8.96
2023-03-28T11:58:17.648Z,9.61
2023-03-28T11:59:28.947Z,9.39
2023-03-28T12:00:42.486Z,9.16
2023-03-28T12:01:49.202Z,9.17
2023-03-28T12:02:56.610Z,9.09
2023-03-28T12:04:09.539Z,7.92
2023-03-28T12:05:32.880Z,7.93
2023-03-28T12:06:55.872Z,8.34
2023-03-28T12:08:39.244Z,7.76
2023-03-28T12:09:49.485Z,8.53
2023-03-28T12:10:57.233Z,8.40
2023-03-28T12:12:01.901Z,8.40
2023-03-28T12:13:06.827Z,8.46
2023-03-28T12:14:33.348Z,8.56
2023-03-28T12:15:43.198Z,9.40
2023-03-28T12:16:48.065Z,9.74
2023-03-28T12:17:58.979Z,9.91
2023-03-28T12:19:03.553Z,10.81
2023-03-28T12:20:12.912Z,10.37
2023-03-28T12:21:24.060Z,10.85
2023-03-28T12:22:32.636Z,11.11
2023-03-28T12:23:41.832Z,10.78
2023-03-28T12:25:00.224Z,10.43
2023-03-28T12:26:14.478Z,10.15
2023-03-28T12:27:25.579Z,10.16
2023-03-28T12:28:39.964Z,9.86
2023-03-28T12:29:56.833Z,10.44
2023-03-28T12:31:20.095Z,10.78
2023-03-28T12:32:23.616Z,11.32
2023-03-28T12:33:45.942Z,10.94
2023-03-28T12:35:07.268Z,10.58
2023-03-28T12:36:34.077Z,10.64
2023-03-28T12:37:51.501Z,10.82
2023-03-28T12:38:59.109Z,10.90
2023-03-28T12:40:00.550Z,11.24
2023-03-28T12:41:05.592Z,10.81
2023-03-28T12:42:11.932Z,11.13
2023-03-28T12:43:16.989Z,10.45
2023-03-28T12:44:24.522Z,10.68
2023-03-28T12:45:38.614Z,11.49
2023-03-28T12:46:46.735Z,12.71
2023-03-28T12:47:54.559Z,12.37
2023-03-28T12:49:02.876Z,11.62
2023-03-28T12:50:40.949Z,11.54
2023-03-28T12:51:53.397Z,11.41
2023-03-28T12:52:56.448Z,11.59
2023-03-28T12:54:08.273Z,11.11
2023-03-28T12:55:24.931Z,10.95
2023-03-28T12:56:27.215Z,11.65
2023-03-28T12:57:40.876Z,12.59
2023-03-28T12:58:46.206Z,12.14
2023-03-28T13:00:26.688Z,11.70
2023-03-28T13:01:57.078Z,12.63
2023-03-28T13:03:07.711Z,12.65
2023-03-28T13:04:28.046Z,11.77
2023-03-28T13:05:52.189Z,11.46
2023-03-28T13:07:17.802Z,11.34
2023-03-28T13:08:42.766Z,11.66
2023-03-28T13:09:46.839Z,11.55
2023-03-28T13:11:12.999Z,10.34
2023-03-28T13:12:52.371Z,9.93
2023-03-28T13:14:03.889Z,10.44
2023-03-28T13:15:26.094Z,10.26
2023-03-28T13:16:45.146Z,10.39
2023-03-28T13:17:49.050Z,11.36
2023-03-28T13:19:10.922Z,11.67
2023-03-28T13:20:15.518Z,11.27
2023-03-28T13:21:49.510Z,10.32
2023-03-28T13:23:02.069Z,10.02
2023-03-28T13:24:03.546Z,10.77
2023-03-28T13:25:21.252Z,11.13
2023-03-28T13:26:23.746Z,10.52
2023-03-28T13:27:32.560Z,10.57
2023-03-28T13:28:41.950Z,10.61
2023-03-28T13:29:52.314Z,11.06
2023-03-28T13:31:09.301Z,11.01
2023-03-28T13:32:17.098Z,10.51
2023-03-28T13:33:26.858Z,10.57
2023-03-28T13:34:33.948Z,10.87
2023-03-28T13:35:40.262Z,10.75
2023-03-28T13:36:50.778Z,10.62
2023-03-28T13:37:52.198Z,10.54
2023-03-28T13:39:08.078Z,11.06
2023-03-28T13:40:54.544Z,10.52
2023-03-28T13:41:58.064Z,10.65
2023-03-28T13:43:00.182Z,10.76
2023-03-28T13:44:17.638Z,11.01
2023-03-28T13:45:23.020Z,11.06
2023-03-28T13:46:45.498Z,10.88
2023-03-28T13:47:53.052Z,11.38
2023-03-28T13:49:11.284Z,11.91
2023-03-28T13:50:37.580Z,11.93
2023-03-28T13:51:52.147Z,11.45
2023-03-28T13:52:53.567Z,9.79
2023-03-28T13:53:55.014Z,11.18
2023-03-28T13:55:04.878Z,9.68
2023-03-28T13:56:21.727Z,10.44
2023-03-28T13:57:26.691Z,11.56
2023-03-28T13:58:29.058Z,10.76
2023-03-28T13:59:37.039Z,10.68
2023-03-28T14:00:38.912Z,10.95
2023-03-28T14:01:54.059Z,11.73
2023-03-28T14:03:03.652Z,11.35
2023-03-28T14:04:16.296Z,11.91
2023-03-28T14:05:29.224Z,11.34
2023-03-28T14:06:30.725Z,9.80
2023-03-28T14:07:32.208Z,10.62
2023-03-28T14:08:33.729Z,10.63
2023-03-28T14:09:35.208Z,10.09
2023-03-28T14:10:42.952Z,10.68
2023-03-28T14:11:45.147Z,10.03
2023-03-28T14:12:46.877Z,9.78
2023-03-28T14:13:50.051Z,9.87
2023-03-28T14:14:57.250Z,9.52
2023-03-28T14:15:58.879Z,9.57
2023-03-28T14:17:03.610Z,10.29
2023-03-28T14:18:07.302Z,10.38
2023-03-28T14:19:13.030Z,11.09
2023-03-28T14:20:17.914Z,11.35
2023-03-28T14:21:24.031Z,12.00
2023-03-28T14:22:30.902Z,12.24
2023-03-28T14:23:35.867Z,11.58
2023-03-28T14:24:37.378Z,11.47
2023-03-28T14:25:38.791Z,10.87
2023-03-28T14:26:40.180Z,10.17
2023-03-28T14:27:45.338Z,10.75
2023-03-28T14:28:47.200Z,11.22
2023-03-28T14:29:56.845Z,11.50
2023-03-28T14:30:59.694Z,11.29
2023-03-28T14:32:07.548Z,11.34
2023-03-28T14:33:14.393Z,11.35
2023-03-28T14:34:25.875Z,10.65
2023-03-28T14:35:35.805Z,10.40
2023-03-28T14:37:06.129Z,9.52
2023-03-28T14:38:26.469Z,9.25
2023-03-28T14:39:30.371Z,9.78
2023-03-28T14:40:33.475Z,10.12
2023-03-28T14:41:36.443Z,11.46
2023-03-28T14:42:37.870Z,11.99
2023-03-28T14:43:39.721Z,10.53
2023-03-28T14:44:43.791Z,11.05
2023-03-28T14:45:51.702Z,12.02
2023-03-28T14:46:57.610Z,10.76
2023-03-28T14:47:59.531Z,10.52
2023-03-28T14:49:05.153Z,10.77
2023-03-28T14:50:08.179Z,11.15
2023-03-28T14:51:12.630Z,11.28
2023-03-28T14:52:17.633Z,11.27
2023-03-28T14:53:27.779Z,11.48
2023-03-28T14:54:37.654Z,11.11
2023-03-28T14:55:41.777Z,10.74
2023-03-28T14:56:45.471Z,10.51
2023-03-28T14:57:56.362Z,10.84
2023-03-28T14:59:02.223Z,11.08
2023-03-28T15:00:12.401Z,11.62
2023-03-28T15:01:23.117Z,11.56
2023-03-28T15:02:28.762Z,12.22
2023-03-28T15:03:34.924Z,12.08
2023-03-28T15:04:36.677Z,11.76
2023-03-28T15:05:38.144Z,11.96
2023-03-28T15:06:39.732Z,12.34
2023-03-28T15:07:42.515Z,13.21
2023-03-28T15:08:45.027Z,12.99
2023-03-28T15:10:10.586Z,12.47
2023-03-28T15:11:37.086Z,12.25
2023-03-28T15:12:50.186Z,12.17
2023-03-28T15:14:28.966Z,12.06
2023-03-28T15:15:35.133Z,11.52
2023-03-28T15:16:40.638Z,11.44
2023-03-28T15:17:43.632Z,11.56
2023-03-28T15:18:51.726Z,11.67
2023-03-28T15:19:58.315Z,11.87
2023-03-28T15:21:03.622Z,12.35
2023-03-28T15:22:14.886Z,12.08
2023-03-28T15:23:23.996Z,11.56
2023-03-28T15:24:28.069Z,11.42
2023-03-28T15:25:31.266Z,11.89
2023-03-28T15:26:41.903Z,11.88
2023-03-28T15:27:48.939Z,11.65
2023-03-28T15:28:51.001Z,12.61
2023-03-28T15:29:53.063Z,11.90
2023-03-28T15:30:58.434Z,11.14
2023-03-28T15:32:15.399Z,10.87
2023-03-28T15:33:25.953Z,11.52
2023-03-28T15:34:27.885Z,11.53
2023-03-28T15:35:36.734Z,11.65
2023-03-28T15:36:48.968Z,11.64
2023-03-28T15:37:50.823Z,11.78
2023-03-28T15:39:00.563Z,11.60
2023-03-28T15:40:22.950Z,11.41
2023-03-28T15:41:29.029Z,11.16
2023-03-28T15:42:34.737Z,11.27
2023-03-28T15:43:54.018Z,10.67
2023-03-28T15:44:58.462Z,10.38
2023-03-28T15:46:02.203Z,10.75
2023-03-28T15:47:13.257Z,9.82
2023-03-28T15:48:17.846Z,9.68
2023-03-28T15:49:19.321Z,9.85
2023-03-28T15:50:33.316Z,10.42
2023-03-28T15:51:48.639Z,10.74
2023-03-28T15:52:56.386Z,10.65
2023-03-28T15:54:01.262Z,11.06
2023-03-28T15:55:05.659Z,11.62
2023-03-28T15:56:17.007Z,11.63
2023-03-28T15:57:21.673Z,10.93
2023-03-28T15:58:23.289Z,9.56
2023-03-28T15:59:42.220Z,9.72
2023-03-28T16:00:47.636Z,9.33
2023-03-28T16:01:49.058Z,8.54
2023-03-28T16:02:50.504Z,9.15
2023-03-28T16:04:15.633Z,9.59
2023-03-28T16:05:17.076Z,10.11
2023-03-28T16:06:31.623Z,9.96
2023-03-28T16:07:48.209Z,9.68
2023-03-28T16:09:14.802Z,10.08
2023-03-28T16:10:18.742Z,10.64
2023-03-28T16:11:24.049Z,10.52
2023-03-28T16:12:26.611Z,10.22
2023-03-28T16:13:29.390Z,9.74
2023-03-28T16:14:31.079Z,9.78
2023-03-28T16:15:32.746Z,10.09
2023-03-28T16:16:34.299Z,10.29
2023-03-28T16:17:36.304Z,10.37
2023-03-28T16:18:37.743Z,10.11
2023-03-28T16:19:39.253Z,10.26
2023-03-28T16:20:40.767Z,10.15
2023-03-28T16:21:42.099Z,10.64
2023-03-28T16:22:44.595Z,10.18
2023-03-28T16:23:46.296Z,10.16
2023-03-28T16:24:52.257Z,10.05
2023-03-28T16:25:53.822Z,10.01
2023-03-28T16:26:55.515Z,10.47
2023-03-28T16:27:57.749Z,10.44
2023-03-28T16:28:59.122Z,9.97
2023-03-28T16:30:00.666Z,10.06
2023-03-28T16:31:02.174Z,10.23
2023-03-28T16:32:03.855Z,10.63
2023-03-28T16:33:08.247Z,10.29
2023-03-28T16:34:10.286Z,10.21
2023-03-28T16:35:12.343Z,9.85
2023-03-28T16:36:13.764Z,9.52
2023-03-28T16:37:15.407Z,9.38
2023-03-28T16:38:16.864Z,9.48
2023-03-28T16:39:18.199Z,9.25
2023-03-28T16:40:20.172Z,9.22
2023-03-28T16:41:21.863Z,9.36
2023-03-28T16:42:24.508Z,8.52
2023-03-28T16:43:26.176Z,8.89
2023-03-28T16:44:27.580Z,8.89
2023-03-28T16:45:30.461Z,9.02
2023-03-28T16:46:32.127Z,8.96
2023-03-28T16:47:33.630Z,8.82
2023-03-28T16:48:35.628Z,8.66
2023-03-28T16:49:37.123Z,8.67
2023-03-28T16:50:38.625Z,8.63
2023-03-28T16:51:40.001Z,8.36
2023-03-28T16:52:41.829Z,8.31
2023-03-28T16:53:43.262Z,8.23
2023-03-28T16:54:48.342Z,8.26
2023-03-28T16:55:51.240Z,8.24
